createdAt,value
2023-04-18T00:00:58.714Z,22.1085
2023-04-18T00:02:02.663Z,22.1183
2023-04-18T00:03:06.802Z,22.1078
2023-04-18T00:04:11.045Z,22.0999
2023-04-18T00:05:15.275Z,22.0865
2023-04-18T00:06:19.172Z,22.0815
2023-04-18T00:07:23.086Z,22.0934
2023-04-18T00:08:26.981Z,22.1063
2023-04-18T00:09:30.925Z,22.1125
2023-04-18T00:10:35.049Z,22.0944
2023-04-18T00:11:38.956Z,22.0814
2023-04-18T00:12:43.312Z,22.0730
2023-04-18T00:13:47.241Z,22.0804
2023-04-18T00:14:51.124Z,22.0850
2023-04-18T00:15:55.054Z,22.0874
2023-04-18T00:16:58.988Z,22.0798
2023-04-18T00:18:03.328Z,22.0675
2023-04-18T00:19:07.280Z,22.0641
2023-04-18T00:20:11.450Z,22.0696
2023-04-18T00:21:15.331Z,22.0767
2023-04-18T00:22:19.247Z,22.0668
2023-04-18T00:23:23.155Z,22.0617
2023-04-18T00:24:27.054Z,22.0685
2023-04-18T00:25:30.972Z,22.0811
2023-04-18T00:26:34.872Z,22.0877
2023-04-18T00:27:39.049Z,22.0827
2023-04-18T00:28:42.926Z,22.0577
2023-04-18T00:29:47.072Z,22.0510
2023-04-18T00:30:50.988Z,22.0554
2023-04-18T00:31:54.874Z,22.0547
2023-04-18T00:32:58.807Z,22.0475
2023-04-18T00:34:02.716Z,22.0562
2023-04-18T00:35:06.947Z,22.0612
2023-04-18T00:36:10.849Z,22.0669
2023-04-18T00:37:14.771Z,22.0598
2023-04-18T00:38:18.720Z,22.0581
2023-04-18T00:39:22.617Z,22.0687
2023-04-18T00:40:26.781Z,22.0889
2023-04-18T00:41:30.709Z,22.0765
2023-04-18T00:42:34.913Z,22.0647
2023-04-18T00:43:38.989Z,22.0534
2023-04-18T00:44:42.899Z,22.0482
2023-04-18T00:45:46.828Z,22.0463
2023-04-18T00:46:50.722Z,22.0562
2023-04-18T00:47:54.656Z,22.0673
2023-04-18T00:48:58.586Z,22.0649
2023-04-18T00:50:02.492Z,22.0535
2023-04-18T00:51:06.400Z,22.0581
2023-04-18T00:52:10.305Z,22.0542
2023-04-18T00:53:14.215Z,22.0475
2023-04-18T00:54:18.125Z,22.0490
2023-04-18T00:55:22.247Z,22.0503
2023-04-18T00:56:26.167Z,22.0604
2023-04-18T00:57:30.286Z,22.0562
2023-04-18T00:58:34.196Z,22.0559
2023-04-18T00:59:38.107Z,22.0617
2023-04-18T01:00:42.017Z,22.0698
2023-04-18T01:01:45.926Z,22.0630
2023-04-18T01:02:50.302Z,22.0549
2023-04-18T01:03:54.318Z,22.0492
2023-04-18T01:04:58.520Z,22.0446
2023-04-18T01:06:02.413Z,22.0446
2023-04-18T01:07:06.369Z,22.0516
2023-04-18T01:08:10.238Z,22.0551
2023-04-18T01:09:14.161Z,22.0576
2023-04-18T01:10:18.384Z,22.0550
2023-04-18T01:11:22.275Z,22.0547
2023-04-18T01:12:26.186Z,22.0538
2023-04-18T01:13:30.081Z,22.0594
2023-04-18T01:14:33.987Z,22.0584
2023-04-18T01:15:37.948Z,22.0505
2023-04-18T01:16:41.814Z,22.0348
2023-04-18T01:17:45.729Z,22.0284
2023-04-18T01:18:49.657Z,22.0232
2023-04-18T01:19:53.817Z,22.0237
2023-04-18T01:20:57.730Z,22.0203
2023-04-18T01:22:01.622Z,22.0376
2023-04-18T01:23:05.528Z,22.0556
2023-04-18T01:24:09.429Z,22.0540
2023-04-18T01:25:13.334Z,22.0512
2023-04-18T01:26:17.269Z,22.0602
2023-04-18T01:27:21.442Z,22.0675
2023-04-18T01:28:25.337Z,22.0618
2023-04-18T01:29:29.480Z,22.0469
2023-04-18T01:30:33.387Z,22.0378
2023-04-18T01:31:37.346Z,22.0409
2023-04-18T01:32:41.293Z,22.0378
2023-04-18T01:33:45.187Z,22.0332
2023-04-18T01:34:49.114Z,22.0351
2023-04-18T01:35:53.029Z,22.0352
2023-04-18T01:36:56.922Z,22.0488
2023-04-18T01:38:00.827Z,22.0533
2023-04-18T01:39:04.741Z,22.0543
2023-04-18T01:40:08.979Z,22.0575
2023-04-18T01:41:12.859Z,22.0542
2023-04-18T01:42:16.773Z,22.0478
2023-04-18T01:43:20.684Z,22.0395
2023-04-18T01:44:24.594Z,22.0369
2023-04-18T01:45:28.511Z,22.0365
2023-04-18T01:46:32.473Z,22.0360
2023-04-18T01:47:36.558Z,22.0398
2023-04-18T01:48:40.483Z,22.0354
2023-04-18T01:49:44.374Z,22.0374
2023-04-18T01:50:48.287Z,22.0392
2023-04-18T01:51:52.181Z,22.0296
2023-04-18T01:52:56.107Z,22.0322
2023-04-18T01:54:00.020Z,22.0444
2023-04-18T01:55:04.146Z,22.0479
2023-04-18T01:56:08.070Z,22.0429
2023-04-18T01:57:12.005Z,22.0395
2023-04-18T01:58:15.909Z,22.0313
2023-04-18T01:59:19.810Z,22.0292
2023-04-18T02:00:23.934Z,22.0317
2023-04-18T02:01:27.888Z,22.0226
2023-04-18T02:02:32.087Z,22.0181
2023-04-18T02:03:36.259Z,22.0264
2023-04-18T02:04:40.236Z,22.0404
2023-04-18T02:05:44.171Z,22.0512
2023-04-18T02:06:48.079Z,22.0548
2023-04-18T02:07:52.008Z,22.0511
2023-04-18T02:08:55.934Z,22.0435
2023-04-18T02:10:00.071Z,22.0445
2023-04-18T02:11:03.934Z,22.0462
2023-04-18T02:12:08.084Z,22.0432
2023-04-18T02:13:11.989Z,22.0496
2023-04-18T02:14:15.928Z,22.0432
2023-04-18T02:15:19.888Z,22.0359
2023-04-18T02:16:23.831Z,22.0257
2023-04-18T02:17:27.740Z,22.0245
2023-04-18T02:18:31.607Z,22.0280
2023-04-18T02:19:35.765Z,22.0193
2023-04-18T02:20:39.651Z,22.0261
2023-04-18T02:21:43.557Z,22.0285
2023-04-18T02:22:47.466Z,22.0122
2023-04-18T02:23:51.383Z,21.9988
2023-04-18T02:24:55.532Z,22.0017
2023-04-18T02:25:59.436Z,22.0252
2023-04-18T02:27:03.329Z,22.0390
2023-04-18T02:28:07.229Z,22.0316
2023-04-18T02:29:11.134Z,22.0285
2023-04-18T02:30:15.029Z,22.0287
2023-04-18T02:31:18.931Z,22.0291
2023-04-18T02:32:22.850Z,22.0340
2023-04-18T02:33:26.745Z,22.0298
2023-04-18T02:34:30.956Z,22.0343
2023-04-18T02:35:34.829Z,22.0324
2023-04-18T02:36:38.711Z,22.0242
2023-04-18T02:37:42.608Z,22.0180
2023-04-18T02:38:46.493Z,22.0248
2023-04-18T02:39:50.396Z,22.0275
2023-04-18T02:40:54.308Z,22.0285
2023-04-18T02:41:58.436Z,22.0278
2023-04-18T02:43:02.332Z,22.0293
2023-04-18T02:44:06.237Z,22.0414
2023-04-18T02:45:10.377Z,22.0433
2023-04-18T02:46:14.323Z,22.0311
2023-04-18T02:47:18.207Z,22.0294
2023-04-18T02:48:22.114Z,22.0286
2023-04-18T02:49:25.979Z,22.0277
2023-04-18T02:50:29.887Z,22.0239
2023-04-18T02:51:33.814Z,22.0166
2023-04-18T02:52:37.722Z,22.0239
2023-04-18T02:53:41.658Z,22.0228
2023-04-18T02:54:45.741Z,22.0219
2023-04-18T02:55:49.626Z,22.0297
2023-04-18T02:56:53.740Z,22.0383
2023-04-18T02:57:57.624Z,22.0467
2023-04-18T02:59:01.519Z,22.0539
2023-04-18T03:00:05.381Z,22.0559
2023-04-18T03:01:09.313Z,22.0600
2023-04-18T03:02:13.466Z,22.0558
2023-04-18T03:03:17.391Z,22.0479
2023-04-18T03:04:21.310Z,22.0308
2023-04-18T03:05:25.187Z,22.0199
2023-04-18T03:06:29.074Z,22.0170
2023-04-18T03:07:33.009Z,22.0244
2023-04-18T03:08:36.920Z,22.0276
2023-04-18T03:09:41.040Z,22.0202
2023-04-18T03:10:44.920Z,22.0150
2023-04-18T03:11:48.914Z,22.0136
2023-04-18T03:12:52.804Z,22.0250
2023-04-18T03:13:56.722Z,22.0279
2023-04-18T03:15:00.624Z,22.0243
2023-04-18T03:16:04.629Z,22.0212
2023-04-18T03:17:08.761Z,22.0270
2023-04-18T03:18:12.681Z,22.0320
2023-04-18T03:19:16.831Z,22.0432
2023-04-18T03:20:20.733Z,22.0475
2023-04-18T03:21:24.624Z,22.0479
2023-04-18T03:22:28.525Z,22.0427
2023-04-18T03:23:32.407Z,22.0223
2023-04-18T03:24:36.521Z,22.0064
2023-04-18T03:25:40.402Z,21.9965
2023-04-18T03:26:44.524Z,21.9973
2023-04-18T03:27:48.407Z,21.9999
2023-04-18T03:28:52.301Z,22.0079
2023-04-18T03:29:56.185Z,22.0119
2023-04-18T03:31:00.144Z,22.0280
2023-04-18T03:32:04.055Z,22.0350
2023-04-18T03:33:07.953Z,22.0368
2023-04-18T03:34:12.120Z,22.0342
2023-04-18T03:35:16.217Z,22.0319
2023-04-18T03:36:20.138Z,22.0400
2023-04-18T03:37:24.046Z,22.0563
2023-04-18T03:38:27.944Z,22.0565
2023-04-18T03:39:32.078Z,22.0606
2023-04-18T03:40:35.966Z,22.0783
2023-04-18T03:41:39.835Z,22.0819
2023-04-18T03:42:43.724Z,22.0750
2023-04-18T03:43:47.594Z,22.0615
2023-04-18T03:44:51.498Z,22.0555
2023-04-18T03:45:55.411Z,22.0689
2023-04-18T03:46:59.614Z,22.0873
2023-04-18T03:48:03.502Z,22.0945
2023-04-18T03:49:07.560Z,22.0930
2023-04-18T03:50:11.439Z,22.0844
2023-04-18T03:51:15.316Z,22.0805
2023-04-18T03:52:19.198Z,22.0826
2023-04-18T03:53:23.081Z,22.0865
2023-04-18T03:54:27.281Z,22.0843
2023-04-18T03:55:31.172Z,22.0969
2023-04-18T03:56:35.793Z,22.1212
2023-04-18T03:57:41.275Z,22.1197
2023-04-18T03:58:39.983Z,22.1073
2023-04-18T03:59:45.567Z,22.1017
2023-04-18T04:00:45.274Z,22.0959
2023-04-18T04:01:49.488Z,22.0957
2023-04-18T04:02:53.520Z,22.1017
2023-04-18T04:03:57.559Z,22.1141
2023-04-18T04:05:01.519Z,22.1200
2023-04-18T04:06:05.445Z,22.1388
2023-04-18T04:07:09.571Z,22.1504
2023-04-18T04:08:13.475Z,22.1517
2023-04-18T04:09:17.374Z,22.1598
2023-04-18T04:10:21.282Z,22.1778
2023-04-18T04:11:25.197Z,22.1890
2023-04-18T04:12:29.156Z,22.1953
2023-04-18T04:13:33.036Z,22.1925
2023-04-18T04:14:37.035Z,22.1592
2023-04-18T04:15:40.928Z,22.1253
2023-04-18T04:16:45.027Z,22.0957
2023-04-18T04:17:48.976Z,22.0628
2023-04-18T04:18:52.865Z,22.0370
2023-04-18T04:19:56.748Z,22.0013
2023-04-18T04:21:00.660Z,21.9840
2023-04-18T04:22:04.558Z,21.9939
2023-04-18T04:23:08.467Z,21.9877
2023-04-18T04:24:12.534Z,21.9902
2023-04-18T04:25:16.546Z,21.9872
2023-04-18T04:26:20.460Z,21.9814
2023-04-18T04:27:24.383Z,21.9857
2023-04-18T04:28:28.272Z,21.9831
2023-04-18T04:29:32.423Z,21.9680
2023-04-18T04:30:36.313Z,21.9775
2023-04-18T04:31:40.472Z,21.9723
2023-04-18T04:32:44.375Z,21.9405
2023-04-18T04:33:48.242Z,21.9299
2023-04-18T04:34:52.121Z,21.9206
2023-04-18T04:35:56.024Z,21.9112
2023-04-18T04:36:59.914Z,21.9058
2023-04-18T04:38:03.813Z,21.8972
2023-04-18T04:39:07.938Z,21.8829
2023-04-18T04:40:11.847Z,21.8798
2023-04-18T04:41:15.709Z,21.8757
2023-04-18T04:42:19.588Z,21.8779
2023-04-18T04:43:23.488Z,21.8793
2023-04-18T04:44:27.700Z,21.8865
2023-04-18T04:45:31.612Z,21.8846
2023-04-18T04:46:35.773Z,21.8749
2023-04-18T04:47:39.739Z,21.8710
2023-04-18T04:48:43.649Z,21.8633
2023-04-18T04:49:47.493Z,21.8439
2023-04-18T04:50:51.376Z,21.8391
2023-04-18T04:51:55.285Z,21.8347
2023-04-18T04:52:59.185Z,21.8361
2023-04-18T04:54:03.109Z,21.8426
2023-04-18T04:55:06.988Z,21.8399
2023-04-18T04:56:10.859Z,21.8324
2023-04-18T04:57:14.768Z,21.8387
2023-04-18T04:58:18.685Z,21.8338
2023-04-18T04:59:22.989Z,21.8234
2023-04-18T05:00:26.910Z,21.8108
2023-04-18T05:01:31.061Z,21.8139
2023-04-18T05:02:35.050Z,21.8172
2023-04-18T05:03:39.438Z,21.8200
2023-04-18T05:04:43.431Z,21.8071
2023-04-18T05:05:47.275Z,21.7993
2023-04-18T05:06:51.264Z,21.8000
2023-04-18T05:07:55.153Z,21.8079
2023-04-18T05:08:59.043Z,21.8153
2023-04-18T05:10:02.969Z,21.8127
2023-04-18T05:11:06.863Z,21.8064
2023-04-18T05:12:11.012Z,21.8031
2023-04-18T05:13:14.915Z,21.8121
2023-04-18T05:14:19.025Z,21.8379
2023-04-18T05:15:22.914Z,21.8588
2023-04-18T05:16:26.872Z,21.8994
2023-04-18T05:17:30.789Z,21.9186
2023-04-18T05:18:35.092Z,21.9223
2023-04-18T05:19:39.019Z,21.9223
2023-04-18T05:20:42.901Z,21.9369
2023-04-18T05:21:46.779Z,21.9540
2023-04-18T05:22:50.686Z,21.9563
2023-04-18T05:23:54.867Z,21.9586
2023-04-18T05:24:58.749Z,21.9637
2023-04-18T05:26:02.678Z,21.9667
2023-04-18T05:27:06.592Z,21.9667
2023-04-18T05:28:10.471Z,21.9634
2023-04-18T05:29:14.347Z,21.9739
2023-04-18T05:30:18.264Z,22.0024
2023-04-18T05:31:22.201Z,22.0075
2023-04-18T05:32:26.057Z,22.0096
2023-04-18T05:33:29.953Z,22.0130
2023-04-18T05:34:33.839Z,22.0193
2023-04-18T05:35:37.745Z,22.0166
2023-04-18T05:36:41.658Z,22.0155
2023-04-18T05:37:45.541Z,22.0371
2023-04-18T05:38:49.456Z,22.0482
2023-04-18T05:39:53.343Z,22.0431
2023-04-18T05:40:57.221Z,22.0444
2023-04-18T05:42:01.367Z,22.0448
2023-04-18T05:43:05.269Z,22.0431
2023-04-18T05:44:09.186Z,22.0455
2023-04-18T05:45:13.086Z,22.0588
2023-04-18T05:46:17.300Z,22.0647
2023-04-18T05:47:21.275Z,22.0649
2023-04-18T05:48:25.188Z,22.0631
2023-04-18T05:49:29.063Z,22.0644
2023-04-18T05:50:32.958Z,22.0771
2023-04-18T05:51:37.083Z,22.0696
2023-04-18T05:52:40.984Z,22.0774
2023-04-18T05:53:44.855Z,22.0900
2023-04-18T05:54:48.757Z,22.0967
2023-04-18T05:55:52.635Z,22.1000
2023-04-18T05:56:56.528Z,22.1020
2023-04-18T05:58:00.437Z,22.1117
2023-04-18T05:59:04.587Z,22.1162
2023-04-18T06:00:08.476Z,22.1297
2023-04-18T06:01:12.407Z,22.1329
2023-04-18T06:02:16.379Z,22.1502
2023-04-18T06:03:20.600Z,22.1754
2023-04-18T06:04:24.670Z,22.1731
2023-04-18T06:05:28.899Z,22.1565
2023-04-18T06:06:33.239Z,22.1487
2023-04-18T06:07:37.132Z,22.1472
2023-04-18T06:08:41.055Z,22.1497
2023-04-18T06:09:44.970Z,22.1656
2023-04-18T06:10:48.885Z,22.1776
2023-04-18T06:11:52.828Z,22.1948
2023-04-18T06:12:56.704Z,22.1972
2023-04-18T06:14:00.863Z,22.2010
2023-04-18T06:15:04.762Z,22.2013
2023-04-18T06:16:08.878Z,22.2035
2023-04-18T06:17:12.859Z,22.2123
2023-04-18T06:18:16.738Z,22.2199
2023-04-18T06:19:20.651Z,22.2246
2023-04-18T06:20:24.544Z,22.2353
2023-04-18T06:21:28.436Z,22.2625
2023-04-18T06:22:32.326Z,22.2749
2023-04-18T06:23:36.454Z,22.2569
2023-04-18T06:24:40.345Z,22.2638
2023-04-18T06:25:44.225Z,22.2769
2023-04-18T06:26:48.391Z,22.2876
2023-04-18T06:27:52.270Z,22.2911
2023-04-18T06:28:56.189Z,22.3303
2023-04-18T06:30:00.165Z,22.3415
2023-04-18T06:31:04.081Z,22.3322
2023-04-18T06:32:07.964Z,22.3375
2023-04-18T06:33:11.821Z,22.3456
2023-04-18T06:34:15.905Z,22.3329
2023-04-18T06:35:19.968Z,22.3116
2023-04-18T06:36:24.102Z,22.3094
2023-04-18T06:37:27.995Z,22.3321
2023-04-18T06:38:31.875Z,22.3357
2023-04-18T06:39:35.799Z,22.3328
2023-04-18T06:40:39.738Z,22.3493
2023-04-18T06:41:43.649Z,22.3487
2023-04-18T06:42:47.563Z,22.3383
2023-04-18T06:44:02.851Z,22.3300
2023-04-18T06:44:55.947Z,22.3243
2023-04-18T06:45:59.944Z,22.3312
2023-04-18T06:47:03.845Z,22.3655
2023-04-18T06:48:07.820Z,22.3782
2023-04-18T06:49:11.694Z,22.3931
2023-04-18T06:50:15.579Z,22.3961
2023-04-18T06:51:19.483Z,22.4006
2023-04-18T06:52:23.948Z,22.4222
2023-04-18T06:53:27.818Z,22.4392
2023-04-18T06:54:31.718Z,22.4690
2023-04-18T06:55:35.629Z,22.4969
2023-04-18T06:56:39.565Z,22.5225
2023-04-18T06:57:43.463Z,22.5095
2023-04-18T06:58:47.370Z,22.5044
2023-04-18T06:59:51.261Z,22.5046
2023-04-18T07:00:55.190Z,22.5071
2023-04-18T07:01:59.087Z,22.5081
2023-04-18T07:03:03.101Z,22.5283
2023-04-18T07:04:07.166Z,22.5400
2023-04-18T07:05:11.106Z,22.5265
2023-04-18T07:06:14.995Z,22.5104
2023-04-18T07:07:18.934Z,22.5029
2023-04-18T07:08:22.906Z,22.4984
2023-04-18T07:09:26.860Z,22.5055
2023-04-18T07:10:30.774Z,22.5200
2023-04-18T07:11:34.926Z,22.5384
2023-04-18T07:12:38.833Z,22.5524
2023-04-18T07:13:42.973Z,22.5649
2023-04-18T07:14:46.918Z,22.5917
2023-04-18T07:15:50.813Z,22.6124
2023-04-18T07:16:54.774Z,22.6283
2023-04-18T07:17:58.803Z,22.6447
2023-04-18T07:19:02.704Z,22.6531
2023-04-18T07:20:06.619Z,22.6519
2023-04-18T07:21:10.610Z,22.6535
2023-04-18T07:22:14.531Z,22.6746
2023-04-18T07:23:18.456Z,22.7088
2023-04-18T07:24:22.392Z,22.7184
2023-04-18T07:25:26.310Z,22.7316
2023-04-18T07:26:30.241Z,22.7202
2023-04-18T07:27:34.151Z,22.7266
2023-04-18T07:28:38.401Z,22.7589
2023-04-18T07:29:42.285Z,22.7537
2023-04-18T07:30:46.294Z,22.7371
2023-04-18T07:31:50.216Z,22.7388
2023-04-18T07:32:54.189Z,22.7541
2023-04-18T07:33:58.130Z,22.7613
2023-04-18T07:35:02.157Z,22.7659
2023-04-18T07:36:06.088Z,22.7951
2023-04-18T07:37:10.015Z,22.8187
2023-04-18T07:38:13.963Z,22.8260
2023-04-18T07:39:17.858Z,22.8296
2023-04-18T07:40:21.837Z,22.8662
2023-04-18T07:41:25.730Z,22.8745
2023-04-18T07:42:29.642Z,22.8832
2023-04-18T07:43:33.546Z,22.8980
2023-04-18T07:44:37.509Z,22.9198
2023-04-18T07:45:41.408Z,22.9253
2023-04-18T07:46:45.411Z,22.9205
2023-04-18T07:47:49.388Z,22.9200
2023-04-18T07:48:53.282Z,22.9264
2023-04-18T07:49:57.269Z,22.9321
2023-04-18T07:51:01.187Z,22.9444
2023-04-18T07:52:05.123Z,22.9605
2023-04-18T07:53:09.292Z,22.9794
2023-04-18T07:54:13.242Z,22.9854
2023-04-18T07:55:17.170Z,23.0005
2023-04-18T07:56:21.097Z,23.0214
2023-04-18T07:57:25.019Z,23.0272
2023-04-18T07:58:28.956Z,23.0420
2023-04-18T07:59:32.871Z,23.0511
2023-04-18T08:00:36.827Z,23.0685
2023-04-18T08:01:40.799Z,23.0629
2023-04-18T08:02:44.814Z,23.0448
2023-04-18T08:03:48.868Z,23.0505
2023-04-18T08:04:53.054Z,23.0628
2023-04-18T08:05:57.126Z,23.0847
2023-04-18T08:07:01.070Z,23.0965
2023-04-18T08:08:05.014Z,23.1186
2023-04-18T08:09:08.919Z,23.1321
2023-04-18T08:10:13.107Z,23.1472
2023-04-18T08:11:17.010Z,23.1637
2023-04-18T08:12:20.940Z,23.2027
2023-04-18T08:13:24.873Z,23.2022
2023-04-18T08:14:28.848Z,23.1988
2023-04-18T08:15:33.050Z,23.2142
2023-04-18T08:16:37.002Z,23.2266
2023-04-18T08:17:40.979Z,23.2511
2023-04-18T08:18:44.906Z,23.2648
2023-04-18T08:19:48.859Z,23.2762
2023-04-18T08:20:52.817Z,23.2967
2023-04-18T08:21:56.886Z,23.3224
2023-04-18T08:23:07.323Z,23.3309
2023-04-18T08:24:05.406Z,23.3436
2023-04-18T08:25:09.505Z,23.3616
2023-04-18T08:26:13.426Z,23.3885
2023-04-18T08:27:17.367Z,23.3900
2023-04-18T08:28:21.536Z,23.3821
2023-04-18T08:29:25.446Z,23.3719
2023-04-18T08:30:29.429Z,23.3597
2023-04-18T08:31:33.436Z,23.3665
2023-04-18T08:32:37.507Z,23.3734
2023-04-18T08:33:41.453Z,23.3789
2023-04-18T08:34:45.372Z,23.3834
2023-04-18T08:35:49.334Z,23.3845
2023-04-18T08:36:53.312Z,23.3841
2023-04-18T08:37:57.311Z,23.3792
2023-04-18T08:39:01.236Z,23.3836
2023-04-18T08:40:05.207Z,23.3928
2023-04-18T08:41:09.169Z,23.4010
2023-04-18T08:42:13.082Z,23.4011
2023-04-18T08:43:17.048Z,23.4056
2023-04-18T08:44:21.046Z,23.4049
2023-04-18T08:45:25.016Z,23.4113
2023-04-18T08:46:29.261Z,23.4049
2023-04-18T08:47:33.189Z,23.4023
2023-04-18T08:48:37.228Z,23.4025
2023-04-18T08:49:41.161Z,23.4048
2023-04-18T08:50:45.185Z,23.4058
2023-04-18T08:51:49.057Z,23.4118
2023-04-18T08:52:52.993Z,23.4156
2023-04-18T08:53:56.925Z,23.4216
2023-04-18T08:55:01.006Z,23.4344
2023-04-18T08:56:04.935Z,23.4345
2023-04-18T08:57:09.009Z,23.4413
2023-04-18T08:58:13.015Z,23.4511
2023-04-18T08:59:16.993Z,23.4606
2023-04-18T09:00:21.005Z,23.4612
2023-04-18T09:01:24.966Z,23.4532
2023-04-18T09:02:28.920Z,23.4416
2023-04-18T09:03:32.870Z,23.4365
2023-04-18T09:04:36.959Z,23.4448
2023-04-18T09:05:41.186Z,23.4638
2023-04-18T09:06:46.050Z,23.4780
2023-04-18T09:07:49.951Z,23.4830
2023-04-18T09:08:53.845Z,23.5096
2023-04-18T09:09:53.969Z,23.5046
2023-04-18T09:10:57.860Z,23.4932
2023-04-18T09:12:01.790Z,23.4869
2023-04-18T09:13:05.699Z,23.4896
2023-04-18T09:14:09.629Z,23.5017
2023-04-18T09:15:13.606Z,23.5081
2023-04-18T09:16:17.561Z,23.5090
2023-04-18T09:17:21.522Z,23.5098
2023-04-18T09:18:25.715Z,23.5250
2023-04-18T09:19:29.644Z,23.5267
2023-04-18T09:20:33.585Z,23.5252
2023-04-18T09:21:37.492Z,23.5196
2023-04-18T09:22:41.406Z,23.5270
2023-04-18T09:23:45.336Z,23.5353
2023-04-18T09:24:49.224Z,23.5450
2023-04-18T09:25:53.154Z,23.5357
2023-04-18T09:26:57.098Z,23.5282
2023-04-18T09:28:01.273Z,23.5172
2023-04-18T09:29:05.358Z,23.5132
2023-04-18T09:30:09.272Z,23.5211
2023-04-18T09:31:13.306Z,23.5242
2023-04-18T09:32:17.314Z,23.5199
2023-04-18T09:33:21.211Z,23.5281
2023-04-18T09:34:25.213Z,23.5278
2023-04-18T09:35:29.103Z,23.5215
2023-04-18T09:36:33.105Z,23.5339
2023-04-18T09:37:37.010Z,23.5351
2023-04-18T09:38:41.112Z,23.5275
2023-04-18T09:39:45.146Z,23.5267
2023-04-18T09:40:49.081Z,23.5154
2023-04-18T09:41:52.990Z,23.5174
2023-04-18T09:42:56.961Z,23.5041
2023-04-18T09:44:00.875Z,23.5175
2023-04-18T09:45:05.121Z,23.5145
2023-04-18T09:46:09.079Z,23.5030
2023-04-18T09:47:13.080Z,23.5062
2023-04-18T09:48:16.973Z,23.5128
2023-04-18T09:49:20.884Z,23.5156
2023-04-18T09:50:24.810Z,23.5077
2023-04-18T09:51:28.783Z,23.5084
2023-04-18T09:52:32.859Z,23.5123
2023-04-18T09:53:36.786Z,23.5093
2023-04-18T09:54:40.666Z,23.5048
2023-04-18T09:55:44.596Z,23.5018
2023-04-18T09:56:48.523Z,23.5169
2023-04-18T09:57:52.704Z,23.5194
2023-04-18T09:58:56.660Z,23.5080
2023-04-18T10:00:00.592Z,23.4934
2023-04-18T10:01:04.513Z,23.5030
2023-04-18T10:02:08.582Z,23.5046
2023-04-18T10:03:12.603Z,23.5017
2023-04-18T10:04:16.971Z,23.5020
2023-04-18T10:05:21.434Z,23.5075
2023-04-18T10:06:25.413Z,23.5083
2023-04-18T10:07:29.306Z,23.5039
2023-04-18T10:08:33.209Z,23.5129
2023-04-18T10:09:37.126Z,23.5181
2023-04-18T10:10:41.096Z,23.5302
2023-04-18T10:11:44.988Z,23.5618
2023-04-18T10:12:48.989Z,23.5706
2023-04-18T10:13:53.035Z,23.5969
2023-04-18T10:14:56.970Z,23.6708
2023-04-18T10:16:00.884Z,23.6721
2023-04-18T10:17:04.767Z,23.6356
2023-04-18T10:18:08.727Z,23.6392
2023-04-18T10:19:13.109Z,23.6652
2023-04-18T10:20:17.226Z,23.6778
2023-04-18T10:21:21.181Z,23.6887
2023-04-18T10:22:25.116Z,23.6934
2023-04-18T10:23:29.055Z,23.6960
2023-04-18T10:24:33.092Z,23.7092
2023-04-18T10:25:37.110Z,23.7314
2023-04-18T10:26:41.061Z,23.7507
2023-04-18T10:27:45.335Z,23.7526
2023-04-18T10:28:49.295Z,23.7756
2023-04-18T10:29:53.275Z,23.7780
2023-04-18T10:30:57.404Z,23.7832
2023-04-18T10:32:01.393Z,23.8158
2023-04-18T10:33:08.494Z,23.8275
2023-04-18T10:34:09.847Z,23.8480
2023-04-18T10:35:13.832Z,23.8498
2023-04-18T10:36:17.805Z,23.8556
2023-04-18T10:37:21.808Z,23.8739
2023-04-18T10:38:25.834Z,23.8926
2023-04-18T10:39:29.777Z,23.9010
2023-04-18T10:40:33.781Z,23.8986
2023-04-18T10:41:37.754Z,23.9010
2023-04-18T10:42:41.748Z,23.9017
2023-04-18T10:43:45.648Z,23.9077
2023-04-18T10:44:49.897Z,23.9090
2023-04-18T10:45:53.917Z,23.9105
2023-04-18T10:46:57.864Z,23.9229
2023-04-18T10:47:58.343Z,23.9263
2023-04-18T10:49:02.248Z,23.9296
2023-04-18T10:50:06.968Z,23.9336
2023-04-18T10:51:11.075Z,23.9332
2023-04-18T10:52:15.037Z,23.9298
2023-04-18T10:53:18.986Z,23.9641
2023-04-18T10:54:22.975Z,24.0107
2023-04-18T10:55:27.103Z,24.0172
2023-04-18T10:56:31.115Z,24.0148
2023-04-18T10:57:35.247Z,24.0244
2023-04-18T10:58:39.147Z,24.0366
2023-04-18T10:59:43.102Z,24.0266
2023-04-18T11:00:47.121Z,24.0222
2023-04-18T11:01:51.026Z,24.0377
2023-04-18T11:02:55.190Z,24.0311
2023-04-18T11:03:59.297Z,24.0206
2023-04-18T11:05:03.299Z,24.0123
2023-04-18T11:06:07.239Z,23.9925
2023-04-18T11:07:11.788Z,24.0173
2023-04-18T11:08:15.838Z,24.0339
2023-04-18T11:09:19.795Z,24.0489
2023-04-18T11:10:23.902Z,24.0510
2023-04-18T11:11:27.828Z,24.0505
2023-04-18T11:12:31.782Z,24.0748
2023-04-18T11:13:35.771Z,24.0715
2023-04-18T11:14:39.824Z,24.0778
2023-04-18T11:15:43.783Z,24.0922
2023-04-18T11:16:47.858Z,24.1029
2023-04-18T11:17:51.907Z,24.1074
2023-04-18T11:18:55.888Z,24.0974
2023-04-18T11:19:59.927Z,24.1066
2023-04-18T11:21:03.951Z,24.0988
2023-04-18T11:22:07.906Z,24.0952
2023-04-18T11:23:11.944Z,24.0911
2023-04-18T11:24:16.039Z,24.0834
2023-04-18T11:25:20.147Z,24.0762
2023-04-18T11:26:24.217Z,24.0829
2023-04-18T11:27:28.163Z,24.0932
2023-04-18T11:28:32.167Z,24.1078
2023-04-18T11:29:36.468Z,24.1064
2023-04-18T11:30:40.361Z,24.0896
2023-04-18T11:31:44.378Z,24.0729
2023-04-18T11:32:48.354Z,24.0872
2023-04-18T11:33:52.287Z,24.0984
2023-04-18T11:34:56.268Z,24.0978
2023-04-18T11:36:00.288Z,24.0879
2023-04-18T11:37:04.213Z,24.0872
2023-04-18T11:38:08.157Z,24.0980
2023-04-18T11:39:12.117Z,24.0897
2023-04-18T11:40:16.277Z,24.0880
2023-04-18T11:41:20.242Z,24.0887
2023-04-18T11:42:24.457Z,24.0803
2023-04-18T11:43:28.352Z,24.0847
2023-04-18T11:44:33.764Z,24.0800
2023-04-18T11:45:34.096Z,24.0805
2023-04-18T11:46:38.368Z,24.0912
2023-04-18T11:47:42.579Z,24.0811
2023-04-18T11:48:46.499Z,24.0756
2023-04-18T11:49:50.509Z,24.0594
2023-04-18T11:50:54.465Z,24.0587
2023-04-18T11:51:58.627Z,24.0613
2023-04-18T11:53:02.537Z,24.0503
2023-04-18T11:54:06.465Z,24.0377
2023-04-18T11:55:10.660Z,24.0508
2023-04-18T11:56:14.585Z,24.0674
2023-04-18T11:57:18.523Z,24.0572
2023-04-18T11:58:22.461Z,24.0547
2023-04-18T11:59:26.400Z,24.0509
2023-04-18T12:00:30.383Z,24.0474
2023-04-18T12:01:34.281Z,24.0475
2023-04-18T12:02:38.472Z,24.0492
2023-04-18T12:03:42.669Z,24.0361
2023-04-18T12:04:47.037Z,24.0328
2023-04-18T12:05:51.370Z,24.0261
2023-04-18T12:06:55.393Z,24.0256
2023-04-18T12:07:59.291Z,24.0307
2023-04-18T12:09:03.193Z,24.0328
2023-04-18T12:10:07.370Z,24.0301
2023-04-18T12:11:11.320Z,24.0310
2023-04-18T12:12:15.275Z,24.0208
2023-04-18T12:13:19.238Z,24.0068
2023-04-18T12:14:23.292Z,23.9844
2023-04-18T12:15:27.304Z,23.9802
2023-04-18T12:16:31.295Z,23.9925
2023-04-18T12:17:35.275Z,23.9965
2023-04-18T12:18:39.271Z,23.9843
2023-04-18T12:19:43.132Z,23.9847
2023-04-18T12:20:47.105Z,23.9941
2023-04-18T12:21:51.050Z,23.9878
2023-04-18T12:22:55.052Z,23.9731
2023-04-18T12:23:58.979Z,23.9620
2023-04-18T12:25:02.885Z,23.9609
2023-04-18T12:26:06.816Z,23.9681
2023-04-18T12:27:11.025Z,23.9625
2023-04-18T12:28:14.975Z,23.9581
2023-04-18T12:29:19.292Z,23.9604
2023-04-18T12:30:23.187Z,23.9571
2023-04-18T12:31:27.214Z,23.9533
2023-04-18T12:32:31.237Z,23.9571
2023-04-18T12:33:35.238Z,23.9407
2023-04-18T12:34:39.197Z,23.9531
2023-04-18T12:35:43.116Z,23.9500
2023-04-18T12:36:47.346Z,23.9592
2023-04-18T12:37:51.245Z,23.9505
2023-04-18T12:38:55.201Z,23.9402
2023-04-18T12:39:59.163Z,23.9422
2023-04-18T12:41:03.112Z,23.9470
2023-04-18T12:42:07.041Z,23.9412
2023-04-18T12:43:11.001Z,23.9203
2023-04-18T12:44:15.135Z,23.9033
2023-04-18T12:45:19.105Z,23.9004
2023-04-18T12:46:23.129Z,23.8977
2023-04-18T12:47:27.130Z,23.8917
2023-04-18T12:48:31.057Z,23.8877
2023-04-18T12:49:34.982Z,23.8898
2023-04-18T12:50:38.915Z,23.8960
2023-04-18T12:51:42.796Z,23.9069
2023-04-18T12:52:46.732Z,23.9089
2023-04-18T12:53:50.642Z,23.9007